Time;durP1;ratioP1;P1;durP2;ratioP2;P2;SDS_P1;SDS_P2;PMS_P1;PMS_P2;Temp;Humidity;BMP_temperature;BMP_pressure;BME280_temperature;BME280_humidity;BME280_pressure;Samples;Min_cycle;Max_cycle;Signal;HPM_P1;HPM_P2
2021/12/24 00:01:58;;;;;;;7.80;4.60;;;6.90;99.90;;;;;;5038750;28;20183;-82
2021/12/24 00:04:24;;;;;;;5.77;4.60;;;7.20;99.90;;;;;;5038760;28;20176;-82
2021/12/24 00:06:51;;;;;;;5.30;4.07;;;7.20;99.90;;;;;;5038806;28;20179;-82
2021/12/24 00:09:22;;;;;;;5.53;4.23;;;7.10;99.90;;;;;;5039157;28;20176;-81
2021/12/24 00:11:54;;;;;;;5.47;4.43;;;7.10;99.90;;;;;;5038755;28;20245;-82
2021/12/24 00:14:22;;;;;;;5.80;4.27;;;7.20;99.90;;;;;;5037250;28;20286;-82
2021/12/24 00:16:52;;;;;;;6.93;4.10;;;7.20;95.60;;;;;;5051930;28;20179;-80
2021/12/24 00:19:26;;;;;;;6.47;4.27;;;7.10;99.90;;;;;;5056112;28;20267;-81
2021/12/24 00:35:35;;;;;;;6.27;4.33;;;7.10;99.90;;;;;;5036060;28;20751;-80
2021/12/24 00:38:07;;;;;;;6.97;4.60;;;7.00;99.90;;;;;;5034566;28;20203;-80
2021/12/24 00:40:47;;;;;;;6.90;4.33;;;6.80;99.90;;;;;;5037511;28;20243;-81
2021/12/24 00:43:15;;;;;;;5.20;4.33;;;6.80;99.90;;;;;;5037759;28;20270;-79
2021/12/24 00:45:43;;;;;;;5.30;4.23;;;6.70;1.00;;;;;;5037485;28;20187;-78
2021/12/24 00:48:12;;;;;;;6.43;4.30;;;6.90;99.90;;;;;;5037125;28;20199;-79
2021/12/24 00:56:01;;;;;;;6.93;4.20;;;7.30;99.90;;;;;;5038755;28;20213;-79
2021/12/24 00:58:26;;;;;;;5.10;3.80;;;7.20;99.90;;;;;;5037925;28;20605;-79
2021/12/24 01:00:52;;;;;;;5.43;4.20;;;7.20;99.90;;;;;;5039550;28;20238;-79
2021/12/24 01:03:18;;;;;;;5.67;4.10;;;7.30;99.90;;;;;;5040941;28;20180;-80
2021/12/24 01:05:44;;;;;;;5.50;4.03;;;7.30;99.90;;;;;;5039539;28;20180;-80
2021/12/24 01:08:11;;;;;;;4.73;4.10;;;7.20;99.90;;;;;;5045760;28;20196;-78
2021/12/24 01:10:45;;;;;;;5.50;4.10;;;7.20;99.90;;;;;;5037749;28;20663;-78
2021/12/24 01:13:12;;;;;;;6.63;4.40;;;7.20;99.90;;;;;;5047848;28;20261;-79
2021/12/24 01:15:48;;;;;;;4.50;4.10;;;7.20;99.90;;;;;;5040435;28;20626;-81
2021/12/24 01:18:32;;;;;;;5.33;4.23;;;7.30;99.90;;;;;;5036102;28;20199;-80
2021/12/24 01:23:53;;;;;;;5.97;4.20;;;7.20;99.90;;;;;;5000465;28;20179;-80
2021/12/24 01:26:50;;;;;;;6.27;4.70;;;7.20;99.90;;;;;;5037987;28;20191;-80
2021/12/24 01:45:11;;;;;;;6.87;4.37;;;6.00;1.00;;;;;;5037090;28;20255;-79
2021/12/24 01:47:37;;;;;;;6.43;4.50;;;6.10;1.00;;;;;;5034859;28;20687;-77
2021/12/24 01:50:03;;;;;;;6.17;4.13;;;6.10;1.00;;;;;;5032744;28;20180;-78
2021/12/24 01:52:28;;;;;;;8.20;4.47;;;6.20;1.00;;;;;;5032838;28;20591;-77
2021/12/24 01:54:54;;;;;;;5.27;4.33;;;6.20;1.00;;;;;;5032338;28;20203;-81
2021/12/24 01:57:19;;;;;;;5.57;4.27;;;6.20;1.00;;;;;;5031825;28;20211;-78
2021/12/24 01:59:45;;;;;;;5.27;4.27;;;6.50;1.00;;;;;;5032126;28;20207;-79
2021/12/24 02:02:10;;;;;;;6.83;4.10;;;6.60;1.00;;;;;;5032631;28;20561;-80
2021/12/24 02:04:36;;;;;;;7.80;4.03;;;6.70;1.00;;;;;;5033021;28;20703;-80
2021/12/24 02:07:02;;;;;;;6.90;4.57;;;6.60;1.00;;;;;;5032360;28;20652;-79
2021/12/24 02:09:29;;;;;;;6.70;4.50;;;6.50;1.00;;;;;;5032549;28;20180;-80
2021/12/24 02:11:56;;;;;;;6.23;4.63;;;6.20;1.00;;;;;;5035027;28;20180;-79
2021/12/24 02:14:24;;;;;;;6.10;5.00;;;6.00;1.00;;;;;;5035459;28;20270;-77
2021/12/24 02:30:34;;;;;;;5.90;4.53;;;5.70;1.00;;;;;;5032740;28;20215;-80
2021/12/24 02:33:01;;;;;;;5.57;4.57;;;5.60;1.00;;;;;;5031934;28;20655;-78
2021/12/24 02:35:27;;;;;;;6.27;3.93;;;5.60;1.00;;;;;;5032366;28;20186;-79
2021/12/24 02:37:52;;;;;;;4.70;4.20;;;5.60;1.00;;;;;;5031782;28;20195;-80
2021/12/24 02:40:18;;;;;;;5.80;4.07;;;5.50;1.00;;;;;;5032009;28;20250;-79
2021/12/24 02:42:49;;;;;;;6.07;4.33;;;5.50;1.00;;;;;;5033859;28;20216;-79
2021/12/24 02:45:15;;;;;;;5.23;4.30;;;5.70;1.00;;;;;;5036143;28;20225;-80
2021/12/24 02:55:33;;;;;;;4.93;3.77;;;5.80;1.00;;;;;;5034397;28;20206;-79
2021/12/24 02:57:59;;;;;;;5.50;4.13;;;5.80;1.00;;;;;;5031421;28;20576;-78
2021/12/24 03:00:27;;;;;;;4.57;3.70;;;5.80;1.00;;;;;;5032043;28;20231;-80
2021/12/24 03:02:54;;;;;;;6.40;4.23;;;5.90;1.00;;;;;;5032007;28;20562;-79
2021/12/24 03:05:21;;;;;;;4.97;3.93;;;5.90;1.00;;;;;;5033645;28;20660;-79
2021/12/24 03:07:48;;;;;;;9.30;5.30;;;5.90;1.00;;;;;;5034450;28;20199;-81
2021/12/24 03:10:18;;;;;;;7.47;4.70;;;5.90;1.00;;;;;;5035515;28;20180;-79
2021/12/24 03:12:47;;;;;;;5.33;4.00;;;6.00;1.00;;;;;;5032209;28;20176;-77
2021/12/24 03:15:15;;;;;;;5.80;4.17;;;6.10;1.00;;;;;;5032820;28;20172;-77
2021/12/24 03:17:47;;;;;;;5.37;3.63;;;6.20;1.00;;;;;;5031634;28;20225;-77
2021/12/24 03:20:13;;;;;;;5.23;3.97;;;6.20;1.00;;;;;;5031785;28;20216;-77
2021/12/24 03:22:49;;;;;;;5.40;3.70;;;6.30;1.00;;;;;;5032511;28;20187;-77
2021/12/24 03:25:15;;;;;;;5.17;3.37;;;6.20;1.00;;;;;;5034515;28;20183;-78
2021/12/24 03:27:42;;;;;;;3.90;3.30;;;6.10;1.00;;;;;;5035856;28;20592;-78
2021/12/24 03:30:08;;;;;;;4.67;3.13;;;6.10;1.00;;;;;;5035261;28;20660;-78
2021/12/24 03:32:34;;;;;;;5.63;3.43;;;6.20;1.00;;;;;;5035510;28;20674;-77
2021/12/24 03:35:00;;;;;;;5.47;3.60;;;6.40;1.00;;;;;;5034449;28;20270;-78
2021/12/24 03:37:25;;;;;;;4.80;3.33;;;6.50;1.00;;;;;;5037176;28;20274;-78
2021/12/24 03:39:51;;;;;;;5.20;3.53;;;6.60;1.00;;;;;;5039455;28;20222;-77
2021/12/24 03:42:16;;;;;;;4.13;3.33;;;6.40;1.00;;;;;;5070271;22;20641;-77
2021/12/24 03:44:46;;;;;;;3.90;3.33;;;6.30;1.00;;;;;;5015147;28;20585;-76
2021/12/24 03:47:18;;;;;;;5.40;3.27;;;6.30;1.00;;;;;;5014586;28;20266;-77
2021/12/24 03:54:56;;;;;;;5.87;3.83;;;6.10;1.00;;;;;;5015204;28;20550;-76
2021/12/24 03:57:22;;;;;;;4.37;3.30;;;6.20;1.00;;;;;;5014729;28;20211;-75
2021/12/24 03:59:48;;;;;;;4.90;3.50;;;6.40;1.00;;;;;;5014457;28;20720;-76
2021/12/24 04:02:13;;;;;;;4.73;3.57;;;6.50;1.00;;;;;;5014162;28;20191;-76
2021/12/24 04:04:39;;;;;;;4.43;3.57;;;6.60;1.00;;;;;;5014048;28;20177;-75
2021/12/24 04:07:05;;;;;;;3.70;3.30;;;6.50;1.00;;;;;;5013568;28;20545;-76
2021/12/24 04:09:31;;;;;;;5.40;3.83;;;6.60;1.00;;;;;;5014280;28;20502;-76
2021/12/24 04:11:57;;;;;;;4.73;3.40;;;6.60;1.00;;;;;;5014412;28;20191;-76
2021/12/24 04:14:23;;;;;;;4.53;3.13;;;6.50;1.00;;;;;;5014673;28;20208;-76
2021/12/24 04:16:49;;;;;;;5.47;3.60;;;6.40;1.00;;;;;;5013489;28;20288;-76
2021/12/24 04:27:09;;;;;;;5.17;3.00;;;6.20;1.00;;;;;;5013292;28;20214;-76
2021/12/24 04:29:34;;;;;;;4.70;3.30;;;6.30;1.00;;;;;;5013615;28;20649;-76
2021/12/24 04:32:13;;;;;;;5.80;3.50;;;6.30;1.00;;;;;;5013777;28;20204;-76
2021/12/24 04:34:43;;;;;;;3.97;3.17;;;6.30;1.00;;;;;;5032588;28;20211;-76
2021/12/24 04:39:51;;;;;;;5.30;3.30;;;6.20;1.00;;;;;;5030976;28;20244;-77
2021/12/24 05:01:13;;;;;;;10.57;9.50;;;5.90;1.00;;;;;;5013606;28;20179;-76
2021/12/24 05:04:05;;;;;;;8.70;7.80;;;6.10;1.00;;;;;;5013068;28;20180;-76
2021/12/24 05:06:37;;;;;;;16.17;14.47;;;6.10;1.00;;;;;;5013272;28;20580;-76
2021/12/24 05:09:12;;;;;;;19.63;17.70;;;6.10;1.00;;;;;;5012608;28;20247;-76
2021/12/24 05:11:38;;;;;;;32.07;28.43;;;6.20;1.00;;;;;;5013201;28;20207;-76
2021/12/24 05:14:04;;;;;;;14.37;10.43;;;6.20;1.00;;;;;;5012832;28;20634;-76
2021/12/24 05:16:51;;;;;;;8.40;6.23;;;6.20;1.00;;;;;;5012905;28;20176;-76
2021/12/24 05:21:43;;;;;;;7.87;6.80;;;6.50;1.00;;;;;;5012862;28;20177;-75
2021/12/24 05:24:17;;;;;;;7.50;4.43;;;6.70;1.00;;;;;;5012772;28;20191;-76
2021/12/24 05:26:48;;;;;;;7.67;6.50;;;6.80;1.00;;;;;;5012907;28;20168;-75
2021/12/24 05:29:16;;;;;;;7.60;6.53;;;7.00;1.00;;;;;;5012237;28;20303;-75
2021/12/24 05:31:42;;;;;;;5.80;4.37;;;7.20;1.00;;;;;;5012605;28;20231;-76
2021/12/24 05:34:08;;;;;;;6.70;5.67;;;7.20;1.00;;;;;;5012349;28;20180;-76
2021/12/24 05:36:34;;;;;;;6.07;4.33;;;7.30;1.00;;;;;;5012492;28;20180;-76
2021/12/24 05:39:00;;;;;;;4.30;3.20;;;7.30;1.00;;;;;;5011990;28;20242;-75
2021/12/24 05:41:26;;;;;;;5.43;3.00;;;7.30;1.00;;;;;;5012329;28;20645;-75
2021/12/24 05:43:51;;;;;;;4.97;3.50;;;7.50;99.90;;;;;;5012432;28;20199;-75
2021/12/24 05:46:17;;;;;;;4.20;3.27;;;7.40;99.90;;;;;;5012197;28;20180;-76
2021/12/24 05:48:43;;;;;;;3.97;3.27;;;7.40;99.90;;;;;;5011115;28;20680;-76
2021/12/24 05:51:09;;;;;;;3.50;3.20;;;7.30;1.00;;;;;;5012472;28;20195;-76
2021/12/24 05:53:35;;;;;;;6.30;3.23;;;7.30;1.00;;;;;;5012393;28;20185;-75
2021/12/24 05:56:01;;;;;;;8.37;6.63;;;7.30;1.00;;;;;;5012107;28;20547;-76
2021/12/24 05:58:27;;;;;;;5.87;3.90;;;7.30;1.00;;;;;;5011374;28;20269;-75
2021/12/24 06:00:52;;;;;;;49.53;44.53;;;7.30;1.00;;;;;;5012009;28;20267;-75
2021/12/24 06:03:18;;;;;;;23.17;20.63;;;7.30;1.00;;;;;;5011858;28;20184;-75
2021/12/24 06:05:44;;;;;;;6.40;5.13;;;7.30;1.00;;;;;;5012570;28;20176;-75
2021/12/24 06:08:10;;;;;;;6.23;5.07;;;7.30;1.00;;;;;;5011789;28;20192;-75
2021/12/24 06:10:36;;;;;;;7.67;5.10;;;7.30;1.00;;;;;;5012209;28;20593;-75
2021/12/24 06:13:04;;;;;;;4.37;3.87;;;7.30;1.00;;;;;;5012032;28;20183;-76
2021/12/24 06:15:30;;;;;;;6.00;5.10;;;7.30;1.00;;;;;;5011887;28;20256;-75
2021/12/24 06:17:58;;;;;;;4.87;3.03;;;7.30;1.00;;;;;;5011357;28;20705;-76
2021/12/24 06:20:26;;;;;;;5.00;3.20;;;7.30;1.00;;;;;;5011977;28;20212;-76
2021/12/24 06:22:52;;;;;;;4.23;3.60;;;7.40;1.00;;;;;;5012265;28;20173;-75
2021/12/24 06:25:18;;;;;;;3.83;3.37;;;7.40;1.00;;;;;;5012140;28;20180;-76
2021/12/24 06:27:46;;;;;;;5.93;3.60;;;7.50;1.00;;;;;;5011883;28;20200;-76
2021/12/24 06:30:12;;;;;;;4.60;3.30;;;7.50;1.00;;;;;;5012419;28;20184;-76
2021/12/24 06:32:38;;;;;;;5.47;3.53;;;7.50;1.00;;;;;;5011865;28;20196;-76
2021/12/24 06:35:05;;;;;;;6.63;3.57;;;7.50;1.00;;;;;;5011822;28;20176;-76
2021/12/24 06:37:31;;;;;;;4.53;3.33;;;7.40;1.00;;;;;;5011402;28;20193;-75
2021/12/24 06:39:56;;;;;;;7.33;3.30;;;7.50;1.00;;;;;;5011588;28;20219;-76
2021/12/24 06:42:22;;;;;;;3.97;3.17;;;7.40;1.00;;;;;;5011744;28;20203;-76
2021/12/24 06:44:47;;;;;;;5.03;4.10;;;7.40;1.00;;;;;;5011695;28;20176;-76
2021/12/24 06:47:13;;;;;;;4.83;3.67;;;7.50;1.00;;;;;;5011089;28;20188;-76
2021/12/24 06:49:39;;;;;;;4.13;3.37;;;7.50;1.00;;;;;;5011881;28;20272;-75
2021/12/24 06:52:05;;;;;;;4.53;3.93;;;7.50;1.00;;;;;;5011671;28;20261;-76
2021/12/24 06:54:33;;;;;;;4.87;4.33;;;7.60;99.90;;;;;;5012699;28;20180;-76
2021/12/24 06:57:02;;;;;;;6.50;3.57;;;7.40;1.00;;;;;;5013202;28;20257;-77
2021/12/24 06:59:28;;;;;;;5.93;3.90;;;7.30;1.00;;;;;;5013523;28;20204;-76
2021/12/24 07:01:54;;;;;;;4.30;3.30;;;7.40;1.00;;;;;;5015432;28;20188;-76
2021/12/24 07:04:19;;;;;;;4.60;3.43;;;7.40;1.00;;;;;;5015682;28;20180;-76
2021/12/24 07:06:45;;;;;;;4.07;3.53;;;7.50;1.00;;;;;;5015662;28;20271;-77
2021/12/24 07:09:12;;;;;;;4.90;3.50;;;7.40;1.00;;;;;;5015486;28;20296;-76
2021/12/24 07:11:38;;;;;;;4.83;3.80;;;7.40;1.00;;;;;;5015276;28;20181;-75
2021/12/24 07:14:04;;;;;;;4.43;3.70;;;7.40;1.00;;;;;;5015122;28;20176;-76
2021/12/24 07:16:29;;;;;;;3.80;3.23;;;7.40;1.00;;;;;;5014828;28;20656;-76
2021/12/24 07:18:55;;;;;;;5.27;4.30;;;7.50;1.00;;;;;;5014251;28;20201;-76
2021/12/24 07:21:20;;;;;;;6.07;4.20;;;7.50;1.00;;;;;;5014877;28;20177;-76
2021/12/24 07:23:46;;;;;;;10.40;4.43;;;7.50;1.00;;;;;;5014942;28;20168;-75
2021/12/24 07:26:12;;;;;;;4.90;3.27;;;7.50;1.00;;;;;;5014823;28;20169;-75
2021/12/24 07:28:37;;;;;;;3.90;3.27;;;7.70;1.00;;;;;;5014729;28;20661;-77
2021/12/24 07:31:03;;;;;;;4.28;3.50;;;7.70;1.00;;;;;;5014362;28;20754;-77
2021/12/24 07:33:28;;;;;;;4.97;3.83;;;7.80;1.00;;;;;;5014929;28;20180;-76
2021/12/24 07:35:54;;;;;;;10.20;4.20;;;7.80;1.00;;;;;;5014678;28;20660;-77
2021/12/24 07:38:19;;;;;;;4.50;3.90;;;7.80;1.00;;;;;;5014372;28;20587;-76
2021/12/24 07:40:46;;;;;;;5.63;3.70;;;7.90;1.00;;;;;;5014331;28;20556;-75
2021/12/24 07:43:12;;;;;;;4.87;3.87;;;7.80;1.00;;;;;;5014616;28;20192;-75
2021/12/24 07:45:38;;;;;;;4.50;3.40;;;7.90;1.00;;;;;;5014293;28;20204;-75
2021/12/24 07:48:10;;;;;;;5.40;3.50;;;7.90;1.00;;;;;;5013902;28;20235;-75
2021/12/24 07:53:08;;;;;;;6.90;3.77;;;7.90;1.00;;;;;;5014687;28;20208;-75
2021/12/24 07:55:34;;;;;;;4.57;3.50;;;7.80;1.00;;;;;;5014196;28;20181;-76
2021/12/24 07:58:00;;;;;;;5.40;3.63;;;7.80;1.00;;;;;;5013255;28;20197;-77
2021/12/24 08:00:27;;;;;;;6.43;3.50;;;7.70;1.00;;;;;;5003547;28;20213;-75
2021/12/24 08:02:54;;;;;;;6.07;4.10;;;7.70;1.00;;;;;;5001716;28;20185;-76
2021/12/24 08:05:23;;;;;;;3.93;3.10;;;7.70;1.00;;;;;;5004360;28;20267;-76
2021/12/24 08:07:50;;;;;;;5.00;3.60;;;7.80;1.00;;;;;;5007664;28;20204;-75
2021/12/24 08:10:15;;;;;;;9.83;3.70;;;7.90;1.00;;;;;;5013221;28;20176;-76
2021/12/24 08:12:41;;;;;;;6.17;4.10;;;7.80;1.00;;;;;;5000000;28;20181;-76
2021/12/24 08:15:07;;;;;;;6.87;3.47;;;7.80;1.00;;;;;;4997952;28;20177;-76
2021/12/24 08:17:34;;;;;;;6.83;4.10;;;7.80;1.00;;;;;;5001114;28;20204;-75
2021/12/24 08:20:00;;;;;;;4.70;3.60;;;7.80;1.00;;;;;;5002126;28;20205;-76
2021/12/24 08:22:26;;;;;;;6.57;3.53;;;7.80;1.00;;;;;;5006813;28;20195;-76
2021/12/24 08:24:51;;;;;;;4.57;3.23;;;7.90;1.00;;;;;;5001782;28;20212;-75
2021/12/24 08:27:18;;;;;;;4.83;3.17;;;7.90;1.00;;;;;;5003570;28;20228;-77
2021/12/24 08:29:44;;;;;;;4.00;3.00;;;7.90;1.00;;;;;;5002482;28;20272;-76
2021/12/24 08:32:10;;;;;;;5.27;3.50;;;7.90;1.00;;;;;;5003965;28;20697;-76
2021/12/24 08:34:36;;;;;;;4.30;3.40;;;7.90;1.00;;;;;;5003779;28;20176;-76
2021/12/24 08:37:02;;;;;;;7.63;4.80;;;8.00;1.00;;;;;;5001691;28;20257;-74
2021/12/24 08:39:28;;;;;;;6.50;5.03;;;8.00;1.00;;;;;;5003840;28;20294;-76
2021/12/24 08:41:54;;;;;;;7.70;5.70;;;7.90;1.00;;;;;;5003105;28;20586;-76
2021/12/24 08:44:25;;;;;;;6.33;3.90;;;7.90;1.00;;;;;;5002135;28;21499;-76
2021/12/24 08:46:52;;;;;;;4.90;3.67;;;7.90;1.00;;;;;;5010709;28;20176;-76
2021/12/24 08:49:20;;;;;;;4.57;3.80;;;7.90;1.00;;;;;;5012929;28;20724;-74
2021/12/24 08:51:47;;;;;;;4.07;3.47;;;7.90;1.00;;;;;;5004838;28;20680;-76
2021/12/24 08:54:12;;;;;;;6.90;5.10;;;8.00;1.00;;;;;;5001566;28;20180;-76
2021/12/24 08:56:38;;;;;;;16.48;11.27;;;8.00;1.00;;;;;;4999120;28;20438;-77
2021/12/24 08:59:05;;;;;;;13.03;9.40;;;8.00;1.00;;;;;;5001783;28;20218;-76
2021/12/24 09:01:30;;;;;;;9.73;5.53;;;8.10;1.00;;;;;;5003937;28;20200;-76
2021/12/24 09:03:56;;;;;;;4.63;3.50;;;8.00;1.00;;;;;;5003179;28;20197;-78
2021/12/24 09:06:23;;;;;;;4.60;3.90;;;8.10;1.00;;;;;;4996573;28;20169;-76
2021/12/24 09:08:49;;;;;;;3.77;3.43;;;8.00;1.00;;;;;;5000437;28;20197;-77
2021/12/24 09:11:14;;;;;;;6.57;4.80;;;8.10;1.00;;;;;;5004433;28;20175;-77
2021/12/24 09:13:40;;;;;;;8.23;3.83;;;8.10;1.00;;;;;;5004950;28;20542;-77
2021/12/24 09:16:06;;;;;;;5.80;3.80;;;8.10;1.00;;;;;;5010898;28;20219;-77
2021/12/24 09:18:32;;;;;;;5.83;4.30;;;8.10;1.00;;;;;;5012938;28;20951;-77
2021/12/24 09:21:01;;;;;;;6.67;3.73;;;8.10;1.00;;;;;;5014116;28;20582;-76
2021/12/24 09:23:27;;;;;;;5.53;4.40;;;8.10;1.00;;;;;;5007515;28;20641;-76
2021/12/24 09:25:53;;;;;;;6.00;3.93;;;8.10;1.00;;;;;;5013438;28;20255;-78
2021/12/24 09:28:18;;;;;;;4.60;3.77;;;8.10;1.00;;;;;;5013472;28;20296;-77
2021/12/24 09:30:44;;;;;;;10.50;7.60;;;8.10;1.00;;;;;;5014406;28;20195;-77
2021/12/24 09:33:10;;;;;;;33.43;21.87;;;8.10;1.00;;;;;;5005987;28;20212;-76
2021/12/24 09:35:36;;;;;;;7.23;6.00;;;8.00;1.00;;;;;;5010178;28;20183;-77
2021/12/24 09:38:02;;;;;;;5.87;4.07;;;8.00;1.00;;;;;;5009850;28;20200;-78
2021/12/24 09:40:30;;;;;;;6.97;6.10;;;8.10;1.00;;;;;;5009054;28;20803;-77
2021/12/24 09:42:57;;;;;;;4.47;3.57;;;8.10;1.00;;;;;;5007794;28;20181;-77
2021/12/24 09:45:22;;;;;;;6.30;4.50;;;8.10;1.00;;;;;;5025966;28;20181;-76
2021/12/24 09:47:48;;;;;;;5.93;4.17;;;8.00;1.00;;;;;;5016255;28;20185;-76
2021/12/24 09:50:18;;;;;;;5.33;3.40;;;8.00;1.00;;;;;;5017767;28;20213;-77
2021/12/24 09:52:45;;;;;;;4.47;3.73;;;7.90;1.00;;;;;;5015649;28;20181;-76
2021/12/24 09:55:17;;;;;;;4.53;3.77;;;8.00;1.00;;;;;;4995436;28;20180;-77
2021/12/24 09:57:43;;;;;;;10.17;7.83;;;8.00;1.00;;;;;;4994369;28;20204;-78
2021/12/24 10:00:11;;;;;;;17.93;14.27;;;8.00;1.00;;;;;;4997762;28;20217;-79
2021/12/24 10:02:41;;;;;;;9.37;7.50;;;8.00;1.00;;;;;;4995277;28;20266;-79
2021/12/24 10:05:37;;;;;;;5.70;4.00;;;8.00;1.00;;;;;;4996126;28;20185;-79
2021/12/24 10:08:17;;;;;;;7.07;4.20;;;7.90;3.60;;;;;;4995420;28;20193;-77
2021/12/24 10:10:46;;;;;;;4.93;3.77;;;7.90;64.40;;;;;;5015927;28;20179;-76
2021/12/24 10:13:32;;;;;;;7.20;4.10;;;8.00;36.10;;;;;;5012505;28;20188;-77
2021/12/24 10:16:12;;;;;;;6.80;4.30;;;8.00;47.00;;;;;;5013277;28;20176;-77
2021/12/24 10:18:41;;;;;;;5.27;4.60;;;8.00;52.90;;;;;;5015228;28;20200;-78
2021/12/24 10:21:13;;;;;;;5.90;4.23;;;8.00;59.40;;;;;;5006731;28;20215;-78
2021/12/24 10:23:48;;;;;;;5.90;3.80;;;8.00;56.60;;;;;;5010611;28;20223;-78
2021/12/24 10:26:17;;;;;;;6.33;4.50;;;8.00;61.30;;;;;;5020509;28;20180;-79
2021/12/24 10:28:57;;;;;;;7.27;4.63;;;8.00;82.80;;;;;;5020293;28;20192;-77
2021/12/24 10:31:32;;;;;;;8.33;5.90;;;8.00;99.90;;;;;;5019119;28;20182;-79
2021/12/24 10:34:14;;;;;;;9.80;4.60;;;8.00;99.90;;;;;;5020237;28;20542;-78
2021/12/24 10:37:01;;;;;;;8.43;3.87;;;8.00;99.90;;;;;;5024907;28;20699;-79
2021/12/24 10:39:43;;;;;;;5.30;4.23;;;7.90;99.90;;;;;;5029090;28;20210;-77
2021/12/24 10:42:14;;;;;;;6.93;4.20;;;7.90;99.90;;;;;;5020829;28;20230;-78
2021/12/24 10:44:42;;;;;;;7.03;3.97;;;7.90;99.90;;;;;;5022107;28;20241;-78
2021/12/24 10:47:08;;;;;;;6.73;4.03;;;7.90;99.90;;;;;;5022761;28;20495;-77
2021/12/24 10:52:32;;;;;;;11.53;7.33;;;7.90;99.90;;;;;;5022936;28;21003;-79
2021/12/24 10:55:04;;;;;;;11.83;8.70;;;8.00;99.90;;;;;;5022013;28;20303;-78
2021/12/24 10:57:34;;;;;;;12.17;4.63;;;8.00;99.90;;;;;;5020696;28;20204;-78
2021/12/24 11:00:07;;;;;;;11.37;7.30;;;8.00;99.90;;;;;;5021921;28;20580;-78
2021/12/24 11:02:35;;;;;;;7.20;5.30;;;8.00;99.90;;;;;;5021852;28;20173;-78
2021/12/24 11:05:03;;;;;;;6.33;4.63;;;8.00;99.90;;;;;;5021172;28;20191;-77
2021/12/24 11:07:39;;;;;;;6.03;5.20;;;7.90;99.90;;;;;;5020001;28;20549;-77
2021/12/24 11:10:21;;;;;;;6.17;3.60;;;7.90;99.90;;;;;;5023363;28;20546;-79
2021/12/24 11:12:54;;;;;;;6.97;4.93;;;7.90;99.90;;;;;;5025067;28;20180;-80
2021/12/24 11:15:38;;;;;;;7.63;4.27;;;8.00;99.90;;;;;;5024561;28;20384;-80
2021/12/24 11:18:13;;;;;;;6.97;4.50;;;7.90;99.90;;;;;;5022750;28;20196;-80
2021/12/24 11:20:39;;;;;;;5.20;4.40;;;7.90;99.90;;;;;;5012802;28;20224;-79
2021/12/24 11:23:10;;;;;;;6.53;4.00;;;7.90;99.90;;;;;;5013139;28;20173;-80
2021/12/24 11:25:39;;;;;;;6.20;4.50;;;8.00;99.90;;;;;;5012010;28;20200;-79
2021/12/24 11:28:06;;;;;;;5.70;4.23;;;7.90;99.90;;;;;;5014650;28;20188;-79
2021/12/24 11:30:38;;;;;;;9.10;3.80;;;7.90;99.90;;;;;;5013901;28;20176;-80
2021/12/24 11:33:04;;;;;;;4.80;3.93;;;7.90;99.90;;;;;;5010541;28;20177;-79
2021/12/24 11:35:30;;;;;;;5.03;3.40;;;7.90;99.90;;;;;;5014227;28;20243;-80
2021/12/24 11:37:59;;;;;;;4.63;3.50;;;8.00;99.90;;;;;;5013818;28;20197;-79
2021/12/24 11:40:26;;;;;;;6.03;4.40;;;8.00;99.90;;;;;;5014554;28;20211;-80
2021/12/24 11:42:59;;;;;;;5.30;3.87;;;8.00;99.90;;;;;;5015328;28;20197;-81
2021/12/24 11:45:27;;;;;;;5.73;3.67;;;8.00;99.90;;;;;;5013914;28;20185;-80
2021/12/24 11:47:54;;;;;;;5.23;3.73;;;8.00;99.90;;;;;;5011683;28;20227;-81
2021/12/24 11:50:21;;;;;;;6.50;3.77;;;8.00;99.90;;;;;;5018269;28;20249;-81
2021/12/24 11:52:49;;;;;;;3.93;3.53;;;8.00;99.90;;;;;;5011377;28;20179;-80
2021/12/24 11:55:15;;;;;;;5.07;3.50;;;8.00;99.90;;;;;;5011219;28;20576;-80
2021/12/24 11:58:02;;;;;;;8.13;5.63;;;8.00;99.90;;;;;;5007439;28;20189;-80
2021/12/24 12:00:36;;;;;;;8.70;4.23;;;8.10;99.90;;;;;;5013020;28;20259;-81
2021/12/24 12:03:01;;;;;;;4.40;3.73;;;8.10;99.90;;;;;;5012075;28;20216;-80
2021/12/24 12:05:32;;;;;;;6.20;3.90;;;8.10;99.90;;;;;;5012073;28;20176;-80
2021/12/24 12:08:23;;;;;;;8.47;4.50;;;8.10;99.90;;;;;;5013007;28;20610;-81
2021/12/24 12:10:50;;;;;;;8.33;4.60;;;8.20;99.90;;;;;;5017538;28;20715;-79
2021/12/24 12:13:35;;;;;;;10.30;4.00;;;8.20;99.90;;;;;;5011996;28;20177;-80
2021/12/24 12:16:02;;;;;;;4.13;3.40;;;8.20;99.90;;;;;;5013357;28;20219;-79
2021/12/24 12:18:33;;;;;;;6.83;4.20;;;8.20;99.90;;;;;;5008548;28;20197;-79
2021/12/24 12:21:15;;;;;;;8.40;4.00;;;8.20;99.90;;;;;;5011785;28;20213;-80
2021/12/24 12:24:56;;;;;;;6.27;4.03;;;8.20;99.90;;;;;;5009371;28;20200;-80
2021/12/24 12:26:43;;;;;;;5.00;4.50;;;8.20;99.90;;;;;;5008109;28;20596;-77
2021/12/24 12:29:23;;;;;;;5.03;3.50;;;8.30;99.90;;;;;;4998984;28;20642;-80
2021/12/24 12:31:53;;;;;;;5.57;4.57;;;8.30;99.90;;;;;;5015350;28;20191;-79
2021/12/24 12:34:40;;;;;;;4.43;3.60;;;8.30;99.90;;;;;;5011867;28;20199;-78
2021/12/24 12:37:29;;;;;;;4.47;3.73;;;8.30;99.90;;;;;;5008819;28;20177;-80
2021/12/24 12:40:06;;;;;;;5.67;3.40;;;8.30;99.90;;;;;;5009809;28;20236;-79
2021/12/24 12:42:50;;;;;;;6.60;3.50;;;8.30;99.90;;;;;;5006233;28;20633;-80
2021/12/24 12:45:42;;;;;;;4.50;4.03;;;8.40;99.90;;;;;;5002467;28;20251;-78
2021/12/24 12:48:10;;;;;;;5.33;4.13;;;8.40;99.90;;;;;;5014698;28;20303;-78
2021/12/24 12:50:39;;;;;;;4.97;3.80;;;8.50;99.90;;;;;;5021372;28;20208;-77
2021/12/24 12:53:25;;;;;;;6.10;3.80;;;8.50;99.90;;;;;;5019501;28;20177;-80
2021/12/24 12:56:17;;;;;;;8.50;3.60;;;8.60;99.90;;;;;;5004976;28;20179;-78
2021/12/24 12:59:01;;;;;;;8.60;4.93;;;8.60;99.90;;;;;;5012736;28;20211;-77
2021/12/24 13:01:27;;;;;;;5.80;4.80;;;8.60;99.90;;;;;;5013427;28;20209;-78
2021/12/24 13:03:56;;;;;;;7.60;4.90;;;8.60;99.90;;;;;;5015904;28;20177;-78
2021/12/24 13:06:22;;;;;;;5.40;3.97;;;8.60;99.90;;;;;;5016291;28;20255;-77
2021/12/24 13:08:49;;;;;;;6.07;4.00;;;8.60;99.90;;;;;;5005151;28;20235;-79
2021/12/24 13:11:17;;;;;;;4.73;2.97;;;8.60;99.90;;;;;;5006698;28;20258;-80
2021/12/24 13:14:01;;;;;;;5.83;3.70;;;8.60;99.90;;;;;;5000894;28;20600;-79
2021/12/24 13:16:33;;;;;;;7.50;4.57;;;8.60;99.90;;;;;;4997608;28;20177;-78
2021/12/24 13:24:57;;;;;;;6.23;3.80;;;8.50;99.90;;;;;;4996060;28;20212;-77
2021/12/24 13:27:29;;;;;;;10.73;6.20;;;8.40;99.90;;;;;;4994740;28;20220;-77
2021/12/24 13:30:19;;;;;;;8.07;3.70;;;8.40;99.90;;;;;;4996669;28;20208;-78
2021/12/24 13:32:51;;;;;;;7.07;3.87;;;8.40;99.90;;;;;;4995118;28;20181;-78
2021/12/24 13:35:21;;;;;;;6.00;4.07;;;8.30;99.90;;;;;;4998150;28;20658;-78
2021/12/24 13:37:47;;;;;;;4.00;3.47;;;8.40;99.90;;;;;;4996747;28;20573;-78
2021/12/24 13:40:16;;;;;;;4.97;3.37;;;8.30;99.90;;;;;;5001940;28;20225;-78
2021/12/24 13:42:45;;;;;;;7.33;3.20;;;8.20;99.90;;;;;;5005687;28;20256;-78
2021/12/24 13:45:11;;;;;;;8.90;3.53;;;8.20;99.90;;;;;;4998375;28;20202;-78
2021/12/24 13:55:35;;;;;;;5.57;3.53;;;8.00;99.90;;;;;;4996715;28;20208;-78
2021/12/24 13:58:04;;;;;;;8.30;3.70;;;8.00;99.90;;;;;;4997949;28;20565;-77
2021/12/24 14:00:34;;;;;;;4.37;3.40;;;7.90;99.90;;;;;;5002909;28;20219;-78
2021/12/24 14:03:07;;;;;;;6.13;3.50;;;8.00;99.90;;;;;;5003892;28;20448;-79
2021/12/24 14:05:32;;;;;;;10.53;3.73;;;8.00;99.90;;;;;;5004308;28;20177;-78
2021/12/24 14:08:09;;;;;;;10.90;3.37;;;8.00;99.90;;;;;;4994846;28;20208;-78
2021/12/24 14:10:35;;;;;;;8.47;3.50;;;7.90;99.90;;;;;;5005886;28;20184;-78
2021/12/24 14:13:11;;;;;;;25.90;17.73;;;7.90;99.90;;;;;;5011726;28;20650;-78
2021/12/24 14:15:53;;;;;;;10.67;5.57;;;8.00;99.90;;;;;;4998238;28;20184;-79
2021/12/24 14:24:03;;;;;;;10.07;5.83;;;7.90;99.90;;;;;;5012608;28;20176;-78
2021/12/24 14:26:36;;;;;;;9.37;6.40;;;7.90;99.90;;;;;;5012546;28;20252;-78
2021/12/24 14:29:05;;;;;;;4.40;4.00;;;7.90;99.90;;;;;;5011529;28;20542;-78
2021/12/24 14:32:12;;;;;;;6.77;5.13;;;7.90;99.90;;;;;;5012974;28;20227;-78
2021/12/24 14:34:41;;;;;;;8.77;4.87;;;7.90;99.90;;;;;;4999080;28;20180;-79
2021/12/24 14:37:32;;;;;;;9.07;4.20;;;7.90;99.90;;;;;;5012623;28;20194;-77
2021/12/24 14:40:00;;;;;;;5.83;3.70;;;7.90;99.90;;;;;;5013838;28;20251;-77
2021/12/24 14:42:47;;;;;;;9.00;4.17;;;7.90;99.90;;;;;;5025014;28;20192;-78
2021/12/24 14:45:35;;;;;;;3.83;3.33;;;8.00;99.90;;;;;;5013299;28;20172;-78
2021/12/24 14:48:16;;;;;;;6.97;3.90;;;8.00;99.90;;;;;;5013692;28;20207;-78
2021/12/24 14:51:01;;;;;;;15.67;8.83;;;8.10;99.90;;;;;;5006951;28;20187;-78
2021/12/24 14:53:40;;;;;;;9.17;5.40;;;8.00;99.90;;;;;;5002122;28;20275;-80
2021/12/24 14:56:19;;;;;;;8.50;4.83;;;8.00;99.90;;;;;;5014136;28;20180;-80
2021/12/24 14:58:47;;;;;;;7.53;4.77;;;8.10;99.90;;;;;;5014415;28;20197;-78
2021/12/24 15:01:42;;;;;;;6.70;5.27;;;8.00;99.90;;;;;;5011802;28;20555;-79
2021/12/24 15:04:11;;;;;;;7.90;5.00;;;8.00;99.90;;;;;;5015163;28;20177;-78
2021/12/24 15:06:41;;;;;;;6.40;5.23;;;8.00;99.90;;;;;;5014783;28;20183;-78
2021/12/24 15:09:14;;;;;;;9.63;4.33;;;8.00;99.90;;;;;;5013273;28;20267;-76
2021/12/24 15:11:40;;;;;;;5.17;3.50;;;8.00;99.90;;;;;;5012352;28;20523;-79
2021/12/24 15:14:09;;;;;;;8.47;4.00;;;8.00;99.90;;;;;;5012872;28;20180;-78
2021/12/24 15:16:37;;;;;;;5.83;3.77;;;7.90;99.90;;;;;;5012094;28;20239;-78
2021/12/24 15:19:04;;;;;;;9.63;3.93;;;7.90;99.90;;;;;;5011751;28;20256;-78